createdAt,value
2023-01-13T00:00:31.679Z,87.72
2023-01-13T00:02:35.018Z,87.68
2023-01-13T00:04:38.280Z,87.85
2023-01-13T00:06:41.470Z,87.77
2023-01-13T00:08:45.247Z,87.89
2023-01-13T00:10:49.248Z,87.85
2023-01-13T00:12:53.567Z,87.73
2023-01-13T00:14:58.187Z,87.90
2023-01-13T00:17:01.403Z,87.87
2023-01-13T00:19:04.734Z,87.93
2023-01-13T00:21:10.830Z,87.82
2023-01-13T00:23:14.071Z,87.85
2023-01-13T00:25:17.561Z,87.71
2023-01-13T00:27:20.827Z,87.59
2023-01-13T00:29:24.125Z,87.60
2023-01-13T00:31:29.989Z,87.26
2023-01-13T00:33:33.319Z,86.88
2023-01-13T00:35:36.533Z,86.58
2023-01-13T00:37:41.159Z,86.40
2023-01-13T00:39:44.444Z,86.25
2023-01-13T00:42:05.340Z,86.36
2023-01-13T00:44:08.667Z,86.32
2023-01-13T00:46:14.934Z,86.13
2023-01-13T00:48:20.100Z,86.19
2023-01-13T00:50:23.418Z,85.91
2023-01-13T00:52:27.267Z,85.71
2023-01-13T00:54:30.518Z,85.52
2023-01-13T00:56:40.185Z,85.48
2023-01-13T00:58:45.102Z,85.23
2023-01-13T01:00:48.246Z,85.13
2023-01-13T01:02:51.406Z,84.96
2023-01-13T01:04:55.938Z,84.88
2023-01-13T01:06:59.113Z,84.72
2023-01-13T01:09:02.316Z,84.61
2023-01-13T01:11:07.557Z,84.56
2023-01-13T01:13:11.855Z,84.50
2023-01-13T01:15:14.972Z,84.40
2023-01-13T01:17:18.167Z,84.38
2023-01-13T01:19:21.339Z,84.32
2023-01-13T01:21:27.660Z,84.31
2023-01-13T01:23:31.674Z,83.98
2023-01-13T01:25:34.801Z,84.07
2023-01-13T01:27:37.914Z,84.09
2023-01-13T01:29:41.114Z,84.06
2023-01-13T01:31:45.601Z,84.17
2023-01-13T01:33:50.427Z,84.14
2023-01-13T01:35:53.931Z,84.26
2023-01-13T01:37:58.473Z,84.18
2023-01-13T01:40:01.625Z,84.19
2023-01-13T01:42:22.454Z,84.23
2023-01-13T01:45:03.188Z,84.14
2023-01-13T01:47:06.854Z,84.10
2023-01-13T01:49:16.369Z,84.02
2023-01-13T01:51:19.541Z,83.80
2023-01-13T01:53:28.153Z,83.93
2023-01-13T01:55:36.944Z,83.55
2023-01-13T01:57:44.346Z,83.55
2023-01-13T01:59:47.594Z,83.46
2023-01-13T02:01:50.986Z,83.26
2023-01-13T02:04:00.480Z,83.02
2023-01-13T02:06:04.242Z,82.97
2023-01-13T02:08:10.096Z,82.95
2023-01-13T02:10:16.704Z,83.05
2023-01-13T02:12:32.023Z,83.18
2023-01-13T02:14:36.370Z,83.05
2023-01-13T02:16:44.641Z,83.00
2023-01-13T02:18:57.078Z,82.86
2023-01-13T02:21:24.206Z,82.86
2023-01-13T02:24:26.001Z,82.76
2023-01-13T02:26:56.223Z,82.81
2023-01-13T02:29:30.902Z,82.72
2023-01-13T02:31:45.310Z,82.50
2023-01-13T02:34:02.794Z,82.51
2023-01-13T02:36:12.725Z,82.46
2023-01-13T02:38:19.535Z,82.60
2023-01-13T02:40:26.860Z,82.55
2023-01-13T02:42:55.444Z,82.63
2023-01-13T02:45:08.380Z,82.77
2023-01-13T02:47:22.397Z,82.68
2023-01-13T02:49:32.414Z,82.78
2023-01-13T02:51:37.285Z,82.78
2023-01-13T02:53:45.720Z,82.64
2023-01-13T02:55:52.732Z,82.70
2023-01-13T02:57:59.560Z,82.50
2023-01-13T03:00:04.537Z,82.44
2023-01-13T03:02:10.483Z,82.43
2023-01-13T03:04:17.166Z,82.34
2023-01-13T03:06:40.273Z,82.34
2023-01-13T03:08:50.627Z,82.38
2023-01-13T03:11:05.069Z,82.35
2023-01-13T03:13:26.894Z,82.29
2023-01-13T03:15:40.394Z,82.35
2023-01-13T03:17:50.337Z,82.48
2023-01-13T03:20:06.028Z,82.43
2023-01-13T03:22:19.184Z,82.69
2023-01-13T03:24:29.636Z,82.83
2023-01-13T03:26:38.036Z,82.74
2023-01-13T03:28:46.830Z,82.85
2023-01-13T03:30:54.568Z,82.91
2023-01-13T03:33:03.643Z,83.02
2023-01-13T03:35:13.822Z,82.93
2023-01-13T03:37:22.060Z,82.90
2023-01-13T03:39:31.371Z,82.73
2023-01-13T03:41:39.120Z,82.43
2023-01-13T03:44:04.712Z,82.50
2023-01-13T03:46:12.427Z,82.06
2023-01-13T03:48:19.140Z,81.75
2023-01-13T03:50:29.394Z,81.56
2023-01-13T03:52:35.872Z,81.30
2023-01-13T03:54:46.420Z,80.92
2023-01-13T03:56:55.684Z,80.67
2023-01-13T03:59:00.668Z,80.63
2023-01-13T04:01:11.133Z,80.21
2023-01-13T04:03:21.580Z,80.00
2023-01-13T04:05:27.070Z,79.81
2023-01-13T04:07:39.045Z,79.68
2023-01-13T04:09:49.434Z,79.75
2023-01-13T04:11:58.191Z,79.52
2023-01-13T04:14:03.956Z,79.46
2023-01-13T04:16:09.241Z,79.59
2023-01-13T04:18:19.120Z,79.65
2023-01-13T04:20:22.573Z,79.71
2023-01-13T04:22:27.118Z,79.67
2023-01-13T04:24:30.285Z,79.77
2023-01-13T04:26:33.423Z,79.82
2023-01-13T04:28:36.565Z,79.90
2023-01-13T04:30:40.178Z,79.82
2023-01-13T04:32:43.300Z,79.96
2023-01-13T04:34:46.400Z,79.96
2023-01-13T04:36:49.477Z,79.90
2023-01-13T04:38:54.031Z,80.14
2023-01-13T04:40:57.105Z,80.17
2023-01-13T04:43:00.149Z,80.21
2023-01-13T04:45:03.380Z,80.36
2023-01-13T04:47:06.992Z,80.45
2023-01-13T04:49:10.067Z,80.37
2023-01-13T04:51:13.150Z,80.41
2023-01-13T04:53:16.341Z,80.76
2023-01-13T04:55:22.034Z,80.71
2023-01-13T04:57:25.988Z,80.90
2023-01-13T04:59:29.003Z,80.84
2023-01-13T05:01:32.439Z,80.98
2023-01-13T05:03:35.521Z,80.92
2023-01-13T05:05:38.994Z,80.92
2023-01-13T05:07:42.089Z,81.00
2023-01-13T05:09:45.196Z,80.93
2023-01-13T05:12:07.546Z,80.84
2023-01-13T05:14:28.377Z,80.83
2023-01-13T05:16:49.087Z,80.85
2023-01-13T05:18:52.260Z,80.67
2023-01-13T05:20:55.339Z,80.70
2023-01-13T05:23:16.015Z,80.58
2023-01-13T05:25:25.302Z,80.60
2023-01-13T05:27:30.447Z,80.66
2023-01-13T05:29:33.602Z,80.54
2023-01-13T05:31:36.737Z,80.61
2023-01-13T05:33:39.860Z,80.53
2023-01-13T05:35:44.818Z,80.82
2023-01-13T05:37:48.532Z,80.72
2023-01-13T05:40:14.672Z,80.64
2023-01-13T05:42:40.382Z,80.76
2023-01-13T05:44:44.929Z,80.72
2023-01-13T05:46:48.098Z,80.66
2023-01-13T05:48:51.177Z,80.61
2023-01-13T05:50:54.999Z,80.57
2023-01-13T05:52:58.042Z,80.55
2023-01-13T05:55:01.242Z,80.45
2023-01-13T05:57:04.412Z,80.39
2023-01-13T05:59:07.493Z,80.48
2023-01-13T06:01:12.213Z,80.35
2023-01-13T06:03:16.452Z,80.50
2023-01-13T06:05:19.568Z,80.25
2023-01-13T06:07:22.628Z,80.11
2023-01-13T06:09:25.732Z,80.06
2023-01-13T06:11:28.871Z,80.06
2023-01-13T06:13:32.159Z,79.62
2023-01-13T06:15:35.243Z,79.87
2023-01-13T06:17:39.715Z,79.54
2023-01-13T06:19:43.567Z,79.41
2023-01-13T06:21:46.680Z,79.27
2023-01-13T06:23:49.755Z,79.04
2023-01-13T06:25:59.662Z,78.91
2023-01-13T06:28:03.083Z,78.88
2023-01-13T06:30:06.974Z,78.62
2023-01-13T06:32:15.971Z,78.47
2023-01-13T06:34:20.829Z,78.48
2023-01-13T06:36:26.403Z,78.44
2023-01-13T06:38:34.280Z,78.43
2023-01-13T06:40:37.801Z,78.34
2023-01-13T06:43:02.053Z,78.45
2023-01-13T06:45:05.834Z,78.35
2023-01-13T06:47:09.614Z,78.19
2023-01-13T06:49:12.802Z,77.96
2023-01-13T06:51:17.345Z,78.24
2023-01-13T06:53:20.718Z,78.18
2023-01-13T06:55:23.916Z,78.06
2023-01-13T06:57:26.992Z,78.32
2023-01-13T06:59:30.166Z,78.38
2023-01-13T07:01:33.322Z,78.25
2023-01-13T07:03:36.490Z,78.29
2023-01-13T07:05:40.286Z,78.44
2023-01-13T07:07:45.160Z,78.30
2023-01-13T07:09:48.187Z,78.22
2023-01-13T07:11:52.738Z,78.19
2023-01-13T07:14:13.272Z,77.98
2023-01-13T07:16:16.401Z,78.13
2023-01-13T07:18:19.522Z,77.95
2023-01-13T07:20:22.550Z,77.88
2023-01-13T07:22:25.649Z,77.84
2023-01-13T07:24:30.124Z,77.51
2023-01-13T07:26:33.182Z,77.57
2023-01-13T07:28:37.115Z,77.44
2023-01-13T07:30:40.247Z,77.21
2023-01-13T07:32:43.625Z,77.11
2023-01-13T07:34:46.743Z,77.07
2023-01-13T07:36:49.866Z,76.97
2023-01-13T07:38:54.844Z,76.73
2023-01-13T07:41:19.720Z,76.51
2023-01-13T07:43:34.274Z,76.47
2023-01-13T07:45:37.389Z,76.35
2023-01-13T07:47:41.329Z,76.00
2023-01-13T07:49:44.486Z,75.98
2023-01-13T07:51:47.560Z,76.03
2023-01-13T07:53:50.598Z,75.87
2023-01-13T07:55:57.047Z,75.69
2023-01-13T07:58:01.429Z,75.51
2023-01-13T08:00:05.169Z,75.61
2023-01-13T08:02:12.759Z,75.18
2023-01-13T08:04:15.947Z,75.15
2023-01-13T08:06:19.152Z,75.00
2023-01-13T08:08:22.195Z,75.08
2023-01-13T08:10:25.280Z,74.96
2023-01-13T08:12:53.038Z,74.92
2023-01-13T08:15:01.341Z,74.81
2023-01-13T08:17:04.435Z,74.66
2023-01-13T08:19:07.559Z,74.64
2023-01-13T08:21:13.475Z,74.39
2023-01-13T08:23:16.964Z,74.26
2023-01-13T08:25:20.136Z,74.21
2023-01-13T08:27:23.277Z,73.88
2023-01-13T08:29:26.346Z,73.75
2023-01-13T08:31:30.917Z,73.68
2023-01-13T08:33:34.567Z,73.42
2023-01-13T08:35:38.365Z,73.67
2023-01-13T08:37:41.536Z,73.67
2023-01-13T08:39:44.608Z,73.68
2023-01-13T08:41:56.890Z,73.46
2023-01-13T08:43:59.955Z,73.24
2023-01-13T08:46:05.205Z,73.20
2023-01-13T08:48:10.117Z,73.17
2023-01-13T08:50:13.712Z,72.87
2023-01-13T08:52:17.283Z,72.87
2023-01-13T08:54:20.933Z,72.83
2023-01-13T08:56:24.036Z,72.76
2023-01-13T08:58:27.130Z,72.64
2023-01-13T09:00:30.235Z,72.37
2023-01-13T09:02:33.688Z,72.31
2023-01-13T09:04:38.472Z,72.43
2023-01-13T09:06:41.670Z,72.16
2023-01-13T09:08:47.370Z,72.00
2023-01-13T09:10:50.563Z,71.85
2023-01-13T09:13:10.918Z,71.74
2023-01-13T09:15:14.638Z,71.50
2023-01-13T09:17:18.515Z,71.49
2023-01-13T09:19:21.565Z,71.58
2023-01-13T09:21:26.063Z,71.48
2023-01-13T09:23:29.206Z,71.25
2023-01-13T09:25:35.684Z,71.04
2023-01-13T09:27:38.697Z,70.85
2023-01-13T09:29:42.078Z,70.61
2023-01-13T09:31:45.567Z,70.43
2023-01-13T09:34:06.333Z,70.30
2023-01-13T09:36:09.725Z,69.98
2023-01-13T09:38:14.223Z,69.86
2023-01-13T09:40:22.582Z,69.83
2023-01-13T09:42:51.317Z,69.68
2023-01-13T09:45:01.718Z,69.58
2023-01-13T09:47:12.049Z,69.50
2023-01-13T09:49:22.159Z,69.48
2023-01-13T09:51:31.699Z,69.13
2023-01-13T09:53:41.104Z,68.89
2023-01-13T09:55:45.519Z,68.82
2023-01-13T09:57:48.634Z,68.89
2023-01-13T09:59:51.894Z,68.99
2023-01-13T10:02:05.971Z,68.81
2023-01-13T10:04:12.733Z,68.75
2023-01-13T10:06:21.030Z,69.04
2023-01-13T10:08:28.004Z,68.78
2023-01-13T10:10:38.315Z,68.74
2023-01-13T10:12:59.787Z,68.55
2023-01-13T10:15:02.856Z,68.44
2023-01-13T10:17:17.912Z,68.44
2023-01-13T10:19:27.638Z,68.24
2023-01-13T10:22:05.129Z,68.09
2023-01-13T10:24:16.769Z,67.82
2023-01-13T10:26:30.484Z,67.56
2023-01-13T10:28:33.532Z,67.79
2023-01-13T10:30:40.055Z,67.85
2023-01-13T10:32:44.850Z,67.54
2023-01-13T10:34:49.918Z,67.40
2023-01-13T10:37:02.638Z,67.55
2023-01-13T10:39:10.716Z,67.95
2023-01-13T10:41:26.168Z,68.46
2023-01-13T10:43:30.794Z,68.56
2023-01-13T10:45:33.838Z,68.78
2023-01-13T10:47:38.377Z,68.84
2023-01-13T10:49:41.594Z,69.09
2023-01-13T10:51:46.226Z,69.39
2023-01-13T10:53:59.144Z,70.19
2023-01-13T10:56:06.258Z,70.82
2023-01-13T10:58:19.967Z,71.60
2023-01-13T11:00:31.712Z,72.16
2023-01-13T11:02:36.797Z,72.82
2023-01-13T11:04:43.558Z,73.04
2023-01-13T11:06:47.317Z,73.44
2023-01-13T11:08:52.421Z,73.64
2023-01-13T11:10:57.508Z,74.12
2023-01-13T11:13:08.534Z,74.23
2023-01-13T11:15:18.101Z,74.28
2023-01-13T11:17:33.788Z,74.37
2023-01-13T11:19:42.415Z,74.59
2023-01-13T11:21:54.495Z,74.64
2023-01-13T11:24:06.885Z,74.18
2023-01-13T11:26:15.553Z,73.93
2023-01-13T11:28:36.965Z,73.77
2023-01-13T11:30:50.664Z,73.74
2023-01-13T11:33:17.985Z,73.68
2023-01-13T11:35:23.026Z,73.28
2023-01-13T11:37:28.771Z,72.58
2023-01-13T11:39:44.070Z,71.97
2023-01-13T11:42:13.280Z,71.82
2023-01-13T11:44:21.355Z,71.16
2023-01-13T11:46:28.781Z,70.59
2023-01-13T11:48:36.677Z,70.28
2023-01-13T11:50:48.070Z,70.58
2023-01-13T11:53:10.783Z,70.86
2023-01-13T11:55:27.277Z,71.25
2023-01-13T11:57:53.521Z,71.53
2023-01-13T12:00:13.806Z,71.75
2023-01-13T12:02:31.695Z,71.81
2023-01-13T12:04:45.272Z,71.84
2023-01-13T12:06:58.496Z,71.80
2023-01-13T12:09:38.492Z,71.90
2023-01-13T12:12:09.934Z,72.15
2023-01-13T12:14:25.801Z,72.41
2023-01-13T12:16:30.858Z,73.11
2023-01-13T12:18:56.712Z,73.10
2023-01-13T12:21:14.159Z,73.32
2023-01-13T12:23:28.057Z,73.35
2023-01-13T12:25:39.653Z,73.70
2023-01-13T12:27:47.126Z,73.94
2023-01-13T12:29:55.576Z,73.97
2023-01-13T12:32:01.626Z,74.26
2023-01-13T12:34:24.120Z,74.29
2023-01-13T12:36:33.649Z,74.34
2023-01-13T12:38:38.741Z,74.33
2023-01-13T12:40:55.321Z,74.59
2023-01-13T12:43:27.486Z,74.85
2023-01-13T12:45:32.481Z,75.02
2023-01-13T12:47:38.337Z,75.34
2023-01-13T12:49:45.858Z,75.40
2023-01-13T12:52:14.802Z,75.78
2023-01-13T12:55:01.839Z,76.01
2023-01-13T12:57:20.648Z,76.58
2023-01-13T12:59:51.112Z,76.76
2023-01-13T13:02:30.006Z,77.20
2023-01-13T13:04:48.117Z,77.68
2023-01-13T13:06:58.806Z,77.80
2023-01-13T13:09:06.737Z,77.91
2023-01-13T13:11:39.529Z,78.14
2023-01-13T13:13:47.439Z,78.30
2023-01-13T13:15:52.645Z,78.18
2023-01-13T13:18:05.283Z,78.20
2023-01-13T13:20:54.894Z,78.06
2023-01-13T13:22:58.027Z,78.04
2023-01-13T13:25:24.807Z,77.75
2023-01-13T13:27:35.453Z,77.71
2023-01-13T13:29:54.194Z,77.48
2023-01-13T13:32:16.863Z,77.39
2023-01-13T13:34:30.651Z,77.34
2023-01-13T13:36:54.889Z,77.14
2023-01-13T13:39:35.918Z,77.02
2023-01-13T13:42:01.728Z,76.83
2023-01-13T13:44:34.954Z,76.77
2023-01-13T13:46:49.453Z,76.73
2023-01-13T13:48:54.620Z,76.74
2023-01-13T13:51:02.204Z,76.80
2023-01-13T13:53:09.498Z,77.04
2023-01-13T13:55:18.786Z,77.13
2023-01-13T13:57:29.074Z,77.29
2023-01-13T13:59:33.704Z,77.74
2023-01-13T14:01:41.106Z,77.92
2023-01-13T14:03:44.583Z,78.18
2023-01-13T14:05:59.382Z,78.27
2023-01-13T14:08:05.130Z,78.48
2023-01-13T14:10:15.271Z,78.57
2023-01-13T14:12:21.209Z,78.75
2023-01-13T14:14:25.041Z,78.98
2023-01-13T14:16:28.342Z,78.94
2023-01-13T14:18:33.863Z,78.99
2023-01-13T14:20:37.220Z,79.33
2023-01-13T14:22:40.307Z,79.43
2023-01-13T14:24:47.646Z,79.80
2023-01-13T14:26:53.258Z,79.97
2023-01-13T14:28:58.600Z,79.88
2023-01-13T14:31:02.597Z,80.03
2023-01-13T14:33:16.630Z,80.24
2023-01-13T14:35:19.928Z,80.08
2023-01-13T14:37:26.202Z,80.08
2023-01-13T14:39:37.611Z,79.91
2023-01-13T14:41:49.504Z,79.61
2023-01-13T14:43:57.214Z,79.44
2023-01-13T14:46:03.436Z,79.38
2023-01-13T14:48:10.278Z,79.18
2023-01-13T14:50:22.800Z,79.05
2023-01-13T14:52:28.502Z,78.80
2023-01-13T14:54:47.656Z,78.73
2023-01-13T14:56:53.860Z,78.50
2023-01-13T14:58:58.388Z,78.55
2023-01-13T15:01:30.053Z,78.71
2023-01-13T15:03:41.915Z,78.91
2023-01-13T15:05:58.203Z,79.23
2023-01-13T15:08:05.796Z,79.16
2023-01-13T15:10:17.077Z,79.23
2023-01-13T15:12:28.584Z,79.41
2023-01-13T15:14:34.067Z,79.69
2023-01-13T15:16:37.111Z,80.15
2023-01-13T15:18:41.268Z,80.52
2023-01-13T15:20:45.082Z,80.61
2023-01-13T15:22:48.500Z,80.84
2023-01-13T15:24:51.667Z,81.05
2023-01-13T15:26:54.737Z,81.21
2023-01-13T15:29:00.705Z,81.21
2023-01-13T15:31:05.421Z,81.21
2023-01-13T15:33:12.140Z,81.30
2023-01-13T15:35:15.742Z,81.17
2023-01-13T15:37:19.646Z,81.05
2023-01-13T15:39:22.774Z,80.86
2023-01-13T15:41:49.688Z,81.05
2023-01-13T15:44:10.627Z,81.05
2023-01-13T15:46:35.971Z,81.11
2023-01-13T15:48:39.038Z,81.39
2023-01-13T15:50:42.546Z,81.56
2023-01-13T15:52:45.667Z,81.46
2023-01-13T15:54:49.089Z,81.89
2023-01-13T15:56:53.085Z,81.95
2023-01-13T15:58:56.819Z,82.45
2023-01-13T16:00:59.969Z,82.63
2023-01-13T16:03:05.009Z,82.95
2023-01-13T16:05:08.724Z,83.44
2023-01-13T16:07:14.724Z,83.64
2023-01-13T16:09:17.906Z,83.80
2023-01-13T16:11:21.052Z,84.03
2023-01-13T16:13:24.103Z,84.28
2023-01-13T16:15:27.211Z,84.54
2023-01-13T16:17:34.448Z,84.75
2023-01-13T16:19:38.945Z,84.59
2023-01-13T16:21:42.038Z,85.00
2023-01-13T16:23:45.070Z,85.21
2023-01-13T16:25:48.368Z,85.11
2023-01-13T16:27:51.815Z,85.15
2023-01-13T16:29:55.543Z,85.40
2023-01-13T16:31:58.615Z,85.23
2023-01-13T16:34:03.393Z,84.94
2023-01-13T16:36:14.153Z,85.03
2023-01-13T16:38:17.833Z,84.92
2023-01-13T16:40:24.746Z,84.90
2023-01-13T16:42:27.847Z,84.64
2023-01-13T16:44:30.904Z,84.63
2023-01-13T16:46:34.531Z,84.84
2023-01-13T16:48:37.605Z,84.87
2023-01-13T16:50:42.100Z,84.94
2023-01-13T16:53:09.276Z,85.00
2023-01-13T16:55:12.468Z,85.18
2023-01-13T16:57:15.912Z,85.22
2023-01-13T16:59:19.060Z,85.09
2023-01-13T17:01:25.769Z,84.98
2023-01-13T17:03:29.971Z,84.96
2023-01-13T17:05:33.305Z,84.55
2023-01-13T17:07:36.881Z,84.44
2023-01-13T17:09:41.363Z,84.14
2023-01-13T17:11:44.572Z,83.60
2023-01-13T17:13:47.689Z,83.50
2023-01-13T17:15:50.782Z,83.44
2023-01-13T17:17:55.260Z,83.36
2023-01-13T17:19:58.365Z,83.24
2023-01-13T17:22:01.490Z,83.17
2023-01-13T17:24:07.860Z,82.99
2023-01-13T17:26:29.924Z,82.90
2023-01-13T17:28:33.027Z,83.12
2023-01-13T17:30:36.087Z,83.09
2023-01-13T17:32:39.180Z,83.21
2023-01-13T17:34:42.351Z,83.20
2023-01-13T17:36:45.512Z,83.34
2023-01-13T17:38:48.642Z,83.43
2023-01-13T17:40:51.770Z,83.53
2023-01-13T17:42:57.233Z,83.46
2023-01-13T17:45:00.339Z,83.64
2023-01-13T17:47:03.620Z,83.58
2023-01-13T17:49:06.728Z,83.55
2023-01-13T17:51:13.190Z,83.53
2023-01-13T17:53:16.283Z,83.28
2023-01-13T17:55:19.391Z,83.43
2023-01-13T17:57:22.572Z,83.20
2023-01-13T17:59:27.040Z,83.19
2023-01-13T18:01:32.893Z,82.99
2023-01-13T18:03:36.041Z,82.83
2023-01-13T18:05:39.653Z,82.86
2023-01-13T18:07:42.937Z,83.17
2023-01-13T18:09:46.317Z,83.14
2023-01-13T18:11:49.384Z,83.44
2023-01-13T18:13:56.698Z,83.55
2023-01-13T18:16:07.848Z,83.89
2023-01-13T18:18:10.961Z,83.85
2023-01-13T18:20:32.881Z,83.89
2023-01-13T18:22:53.305Z,83.97
2023-01-13T18:25:13.711Z,84.10
2023-01-13T18:27:22.831Z,84.22
2023-01-13T18:29:26.312Z,84.25
2023-01-13T18:31:30.830Z,84.40
2023-01-13T18:33:33.992Z,84.63
2023-01-13T18:35:39.520Z,85.11
2023-01-13T18:37:44.323Z,85.16
2023-01-13T18:39:48.186Z,85.19
2023-01-13T18:42:08.644Z,85.50
2023-01-13T18:44:11.856Z,85.61
2023-01-13T18:46:14.950Z,85.70
2023-01-13T18:48:19.560Z,85.91
2023-01-13T18:50:23.109Z,85.97
2023-01-13T18:52:27.025Z,85.97
2023-01-13T18:54:30.145Z,86.20
2023-01-13T18:56:33.231Z,86.09
2023-01-13T18:58:36.397Z,86.22
2023-01-13T19:00:39.469Z,86.11
2023-01-13T19:02:42.618Z,86.17
2023-01-13T19:04:47.278Z,86.24
2023-01-13T19:06:51.682Z,86.08
2023-01-13T19:08:55.263Z,86.16
2023-01-13T19:11:04.203Z,86.10
2023-01-13T19:13:07.261Z,85.84
2023-01-13T19:15:11.214Z,85.87
2023-01-13T19:17:16.037Z,85.81
2023-01-13T19:19:19.256Z,85.85
2023-01-13T19:21:25.301Z,85.78
2023-01-13T19:23:28.521Z,85.84
2023-01-13T19:25:31.623Z,85.91
2023-01-13T19:27:34.838Z,86.04
2023-01-13T19:29:37.934Z,86.01
2023-01-13T19:31:49.142Z,86.14
2023-01-13T19:33:52.628Z,86.20
2023-01-13T19:35:55.912Z,86.41
2023-01-13T19:38:00.458Z,86.50
2023-01-13T19:40:09.104Z,86.33
2023-01-13T19:42:30.031Z,86.64
2023-01-13T19:44:50.451Z,86.65
2023-01-13T19:46:53.489Z,86.59
2023-01-13T19:48:56.603Z,86.79
2023-01-13T19:51:00.144Z,86.63
2023-01-13T19:53:04.615Z,86.61
2023-01-13T19:55:08.477Z,86.62
2023-01-13T19:57:11.586Z,86.36
2023-01-13T19:59:18.985Z,86.42
2023-01-13T20:01:24.813Z,86.22
2023-01-13T20:03:31.147Z,86.17
2023-01-13T20:05:34.342Z,85.91
2023-01-13T20:07:37.449Z,85.78
2023-01-13T20:09:43.749Z,85.63
2023-01-13T20:11:48.181Z,85.18
2023-01-13T20:13:52.137Z,85.24
2023-01-13T20:15:55.248Z,85.04
2023-01-13T20:18:00.456Z,85.03
2023-01-13T20:20:03.744Z,84.88
2023-01-13T20:22:07.719Z,84.91
2023-01-13T20:24:17.500Z,84.76
2023-01-13T20:26:22.127Z,84.64
2023-01-13T20:28:25.208Z,84.26
2023-01-13T20:30:28.357Z,84.10
2023-01-13T20:32:31.408Z,83.94
2023-01-13T20:34:34.760Z,84.06
2023-01-13T20:36:39.009Z,83.53
2023-01-13T20:38:42.270Z,83.68
2023-01-13T20:40:45.343Z,83.66
2023-01-13T20:42:48.811Z,83.41
2023-01-13T20:44:51.950Z,83.33
2023-01-13T20:46:55.884Z,83.03
2023-01-13T20:48:59.022Z,83.02
2023-01-13T20:51:02.098Z,83.05
2023-01-13T20:53:05.193Z,83.08
2023-01-13T20:55:09.625Z,82.90
2023-01-13T20:57:13.431Z,82.80
2023-01-13T20:59:18.076Z,82.61
2023-01-13T21:01:21.416Z,82.39
2023-01-13T21:03:24.680Z,82.60
2023-01-13T21:05:28.306Z,82.60
2023-01-13T21:07:31.488Z,82.44
2023-01-13T21:09:34.678Z,82.09
2023-01-13T21:12:00.513Z,82.04
2023-01-13T21:14:21.359Z,81.73
2023-01-13T21:16:26.268Z,81.70
2023-01-13T21:18:46.882Z,81.49
2023-01-13T21:20:51.567Z,81.30
2023-01-13T21:22:54.766Z,81.39
2023-01-13T21:24:58.468Z,81.25
2023-01-13T21:27:01.561Z,81.32
2023-01-13T21:29:05.706Z,81.24
2023-01-13T21:31:10.845Z,81.05
2023-01-13T21:33:15.603Z,80.92
2023-01-13T21:35:18.967Z,81.17
2023-01-13T21:37:22.241Z,81.09
2023-01-13T21:39:25.504Z,81.12
2023-01-13T21:41:45.812Z,80.96
2023-01-13T21:44:17.906Z,80.83
2023-01-13T21:46:39.816Z,81.17
2023-01-13T21:48:44.273Z,81.16
2023-01-13T21:50:47.382Z,81.22
2023-01-13T21:52:52.436Z,81.32
2023-01-13T21:55:13.413Z,81.37
2023-01-13T21:57:16.499Z,81.30
2023-01-13T21:59:19.773Z,81.68
2023-01-13T22:01:23.638Z,81.83
2023-01-13T22:03:27.616Z,82.03
2023-01-13T22:05:32.573Z,82.19
2023-01-13T22:07:36.763Z,82.42
2023-01-13T22:09:40.631Z,82.51
2023-01-13T22:11:43.813Z,82.46
2023-01-13T22:14:06.792Z,82.54
2023-01-13T22:16:10.290Z,82.64
2023-01-13T22:18:13.570Z,82.64
2023-01-13T22:20:17.007Z,82.81
2023-01-13T22:22:22.394Z,83.11
2023-01-13T22:24:26.218Z,83.03
2023-01-13T22:26:29.997Z,83.05
2023-01-13T22:28:34.511Z,83.38
2023-01-13T22:30:38.435Z,83.32
2023-01-13T22:32:41.918Z,83.57
2023-01-13T22:34:45.376Z,83.86
2023-01-13T22:36:48.815Z,83.89
2023-01-13T22:38:56.510Z,84.09
2023-01-13T22:41:00.249Z,84.35
2023-01-13T22:43:03.369Z,84.33
2023-01-13T22:45:08.824Z,84.52
2023-01-13T22:47:12.499Z,84.54
2023-01-13T22:49:16.444Z,84.68
2023-01-13T22:51:20.307Z,84.73
2023-01-13T22:53:24.423Z,84.76
2023-01-13T22:55:28.870Z,84.90
2023-01-13T22:57:42.582Z,84.90
2023-01-13T22:59:50.003Z,84.80
2023-01-13T23:01:53.074Z,84.96
2023-01-13T23:03:56.523Z,85.10
2023-01-13T23:05:59.619Z,84.96
2023-01-13T23:08:02.647Z,85.21
2023-01-13T23:10:06.438Z,85.09
2023-01-13T23:12:10.864Z,85.07
2023-01-13T23:14:14.277Z,85.34
2023-01-13T23:16:21.065Z,85.22
2023-01-13T23:18:27.277Z,85.38
2023-01-13T23:20:30.473Z,85.24
2023-01-13T23:22:36.102Z,85.42
2023-01-13T23:24:39.218Z,85.60
2023-01-13T23:26:42.373Z,85.51
2023-01-13T23:28:46.856Z,85.63
2023-01-13T23:30:50.460Z,85.69
2023-01-13T23:32:53.531Z,85.81
2023-01-13T23:34:56.555Z,85.64
2023-01-13T23:36:59.653Z,85.66
2023-01-13T23:39:02.701Z,85.53
2023-01-13T23:41:07.177Z,85.22
2023-01-13T23:43:10.231Z,85.20
2023-01-13T23:45:14.711Z,85.06
2023-01-13T23:47:17.900Z,85.05
2023-01-13T23:49:21.581Z,85.04
2023-01-13T23:51:26.121Z,85.10
2023-01-13T23:53:33.484Z,84.93
2023-01-13T23:55:37.206Z,84.76
2023-01-13T23:57:40.762Z,84.83
2023-01-13T23:59:44.101Z,84.66
